Time;durP1;ratioP1;P1;durP2;ratioP2;P2;SDS_P1;SDS_P2;PMS_P1;PMS_P2;Temp;Humidity;BMP_temperature;BMP_pressure;BME280_temperature;BME280_humidity;BME280_pressure;Samples;Min_cycle;Max_cycle;Signal;HPM_P1;HPM_P2
2021/08/08 00:00:56;;;;;;;4.00;2.77;;;23.10;98.50;;;;;;5095158;28;20443;-65
2021/08/08 00:03:22;;;;;;;4.57;3.27;;;23.00;98.60;;;;;;5095413;28;20417;-66
2021/08/08 00:05:49;;;;;;;5.50;3.40;;;23.00;98.60;;;;;;5096233;28;20565;-65
2021/08/08 00:08:17;;;;;;;3.30;3.00;;;22.90;98.70;;;;;;5095003;28;20423;-66
2021/08/08 00:10:46;;;;;;;3.73;3.43;;;22.90;98.80;;;;;;5094851;28;20446;-65
2021/08/08 00:13:11;;;;;;;4.00;2.70;;;22.80;99.00;;;;;;5095008;28;20437;-65
2021/08/08 00:15:38;;;;;;;3.53;3.23;;;22.80;99.20;;;;;;5094112;28;21044;-65
2021/08/08 00:18:05;;;;;;;8.50;3.20;;;22.80;99.10;;;;;;5094445;28;20172;-65
2021/08/08 00:20:31;;;;;;;3.93;3.57;;;22.70;99.30;;;;;;5092695;28;20787;-65
2021/08/08 00:22:57;;;;;;;3.57;3.27;;;22.70;99.30;;;;;;5094281;28;20409;-65
2021/08/08 00:25:23;;;;;;;3.83;2.70;;;22.70;99.40;;;;;;5094069;28;20824;-66
2021/08/08 00:27:48;;;;;;;4.47;3.20;;;22.70;99.50;;;;;;5094188;28;20681;-65
2021/08/08 00:30:14;;;;;;;3.57;3.13;;;22.70;99.60;;;;;;5094498;28;20401;-65
2021/08/08 00:32:40;;;;;;;3.83;3.53;;;22.60;99.70;;;;;;5095799;28;20187;-65
2021/08/08 00:35:07;;;;;;;3.43;3.10;;;22.60;99.80;;;;;;5096175;28;20204;-65
2021/08/08 00:37:33;;;;;;;3.77;3.47;;;22.60;99.90;;;;;;5095739;28;20227;-66
2021/08/08 00:39:59;;;;;;;7.33;3.43;;;22.60;99.90;;;;;;5095801;28;20440;-65
2021/08/08 00:42:24;;;;;;;3.50;3.20;;;22.50;99.90;;;;;;5095748;28;20758;-66
2021/08/08 00:44:50;;;;;;;3.60;3.30;;;22.50;99.90;;;;;;5115728;28;20221;-65
2021/08/08 00:47:15;;;;;;;4.03;2.87;;;22.50;99.90;;;;;;5116136;28;20664;-66
2021/08/08 00:49:41;;;;;;;4.03;3.40;;;22.40;99.90;;;;;;5116288;28;20191;-65
2021/08/08 00:52:06;;;;;;;3.50;3.20;;;22.40;99.90;;;;;;5116083;28;20207;-65
2021/08/08 00:54:32;;;;;;;5.33;3.57;;;22.40;99.90;;;;;;5116663;28;20180;-65
2021/08/08 00:56:58;;;;;;;3.57;3.23;;;22.30;99.80;;;;;;5097767;28;20196;-65
2021/08/08 00:59:23;;;;;;;4.17;3.53;;;22.30;99.90;;;;;;5115209;28;20190;-65
2021/08/08 01:01:50;;;;;;;3.67;3.37;;;22.20;99.90;;;;;;5115835;28;20206;-65
2021/08/08 01:04:26;;;;;;;4.80;3.30;;;22.20;99.90;;;;;;5115199;28;20215;-66
2021/08/08 01:07:11;;;;;;;3.47;3.17;;;22.20;99.90;;;;;;5097162;28;20463;-65
2021/08/08 01:09:44;;;;;;;3.90;3.60;;;22.10;99.90;;;;;;5097334;28;20470;-65
2021/08/08 01:12:10;;;;;;;3.50;3.20;;;22.10;99.90;;;;;;5115534;28;20436;-65
2021/08/08 01:14:36;;;;;;;4.40;3.63;;;22.10;99.90;;;;;;5115811;28;20899;-65
2021/08/08 01:17:04;;;;;;;3.80;3.40;;;22.10;99.90;;;;;;5097256;28;20944;-65
2021/08/08 01:19:46;;;;;;;3.80;2.77;;;22.10;99.90;;;;;;5114947;28;20427;-65
2021/08/08 01:22:12;;;;;;;3.97;3.60;;;22.10;99.90;;;;;;5095052;28;20427;-65
2021/08/08 01:24:38;;;;;;;3.63;3.10;;;22.00;99.90;;;;;;5112970;28;20499;-66
2021/08/08 01:27:04;;;;;;;4.23;3.83;;;22.00;99.90;;;;;;5113499;28;20207;-65
2021/08/08 01:29:30;;;;;;;3.93;3.53;;;22.00;99.90;;;;;;5116080;28;20422;-65
2021/08/08 01:31:57;;;;;;;3.30;3.00;;;21.90;99.90;;;;;;5113752;28;20424;-66
2021/08/08 01:34:22;;;;;;;3.03;2.70;;;21.90;99.90;;;;;;5115202;28;20896;-65
2021/08/08 01:36:48;;;;;;;6.10;3.30;;;21.80;99.90;;;;;;5115094;28;20440;-65
2021/08/08 01:39:19;;;;;;;3.60;3.30;;;21.80;99.90;;;;;;5115436;28;20632;-65
2021/08/08 01:41:51;;;;;;;4.03;3.67;;;21.80;99.90;;;;;;5115054;28;20196;-65
2021/08/08 01:44:19;;;;;;;3.50;3.07;;;21.70;99.90;;;;;;5114938;28;20988;-65
2021/08/08 01:46:50;;;;;;;3.60;3.27;;;21.60;99.90;;;;;;5115075;28;20948;-65
2021/08/08 01:49:19;;;;;;;3.70;3.13;;;21.60;99.90;;;;;;5115398;28;20415;-65
2021/08/08 01:51:45;;;;;;;4.00;3.10;;;21.60;99.90;;;;;;5096725;28;20955;-65
2021/08/08 01:54:11;;;;;;;4.73;3.67;;;21.50;99.90;;;;;;5115310;28;20511;-65
2021/08/08 01:56:37;;;;;;;3.50;3.20;;;21.50;99.90;;;;;;5114836;28;20268;-66
2021/08/08 01:59:03;;;;;;;3.40;3.10;;;21.40;99.90;;;;;;5115296;28;20170;-65
2021/08/08 02:01:29;;;;;;;2.87;2.57;;;21.40;99.90;;;;;;5114622;28;20467;-65
2021/08/08 02:03:55;;;;;;;3.43;3.03;;;21.40;99.90;;;;;;5096203;28;20216;-65
2021/08/08 02:06:20;;;;;;;2.93;2.63;;;21.40;99.90;;;;;;5114677;28;20519;-65
2021/08/08 02:08:46;;;;;;;3.97;2.60;;;21.40;99.90;;;;;;5114954;28;20236;-65
2021/08/08 02:11:11;;;;;;;3.60;3.30;;;21.40;99.90;;;;;;5114305;28;20628;-66
2021/08/08 02:13:37;;;;;;;4.33;2.90;;;21.50;99.90;;;;;;5114976;28;20175;-65
2021/08/08 02:16:03;;;;;;;3.27;2.97;;;21.50;99.90;;;;;;5114586;28;20335;-65
2021/08/08 02:18:28;;;;;;;3.50;3.03;;;21.50;99.90;;;;;;5096488;28;20340;-65
2021/08/08 02:20:54;;;;;;;4.10;3.70;;;21.50;99.90;;;;;;5114473;28;20203;-66
2021/08/08 02:23:20;;;;;;;3.70;3.30;;;21.50;99.90;;;;;;5114668;28;20528;-65
2021/08/08 02:25:50;;;;;;;3.23;2.80;;;21.50;99.90;;;;;;5114389;28;20552;-65
2021/08/08 02:28:16;;;;;;;4.10;3.70;;;21.50;99.90;;;;;;5114656;28;20176;-65
2021/08/08 02:30:42;;;;;;;4.10;3.27;;;21.50;99.90;;;;;;5114467;28;20805;-65
2021/08/08 02:33:08;;;;;;;6.03;4.53;;;21.60;99.90;;;;;;5114505;28;20430;-66
2021/08/08 02:35:33;;;;;;;3.43;3.13;;;21.50;99.90;;;;;;5096087;28;20679;-65
2021/08/08 02:37:59;;;;;;;3.93;3.13;;;21.50;99.90;;;;;;5112939;28;20505;-65
2021/08/08 02:40:24;;;;;;;4.27;3.13;;;21.40;99.90;;;;;;5093868;28;20179;-65
2021/08/08 02:42:50;;;;;;;3.43;3.13;;;21.40;99.90;;;;;;5097399;28;20230;-65
2021/08/08 02:45:16;;;;;;;3.73;3.33;;;21.30;99.90;;;;;;5095888;28;20219;-65
2021/08/08 02:47:42;;;;;;;4.23;3.33;;;21.30;99.90;;;;;;5095077;28;20656;-65
2021/08/08 02:50:08;;;;;;;4.00;3.60;;;21.30;99.90;;;;;;5113548;28;20892;-65
2021/08/08 02:52:35;;;;;;;3.73;3.20;;;21.20;99.90;;;;;;5113303;28;20199;-65
2021/08/08 02:55:01;;;;;;;6.23;3.27;;;21.30;99.90;;;;;;5113763;28;20407;-65
2021/08/08 02:57:26;;;;;;;4.53;3.33;;;21.30;99.90;;;;;;5113502;28;20822;-65
2021/08/08 02:59:52;;;;;;;3.97;3.43;;;21.30;99.90;;;;;;5114102;28;20693;-66
2021/08/08 03:02:17;;;;;;;4.47;4.07;;;21.30;99.90;;;;;;5095404;28;20192;-65
2021/08/08 03:04:43;;;;;;;4.00;3.60;;;21.30;99.90;;;;;;5095826;28;20244;-66
2021/08/08 03:07:08;;;;;;;3.70;3.40;;;21.30;99.90;;;;;;5113888;28;20269;-65
2021/08/08 03:09:34;;;;;;;4.40;3.73;;;21.30;99.90;;;;;;5114347;28;20183;-65
2021/08/08 03:12:00;;;;;;;4.27;3.60;;;21.30;99.90;;;;;;5113793;28;20686;-65
2021/08/08 03:14:28;;;;;;;4.10;3.73;;;21.30;99.90;;;;;;5114604;28;20650;-65
2021/08/08 03:16:54;;;;;;;4.37;3.97;;;21.20;99.90;;;;;;5094811;28;20200;-65
2021/08/08 03:19:21;;;;;;;4.80;3.83;;;21.20;99.90;;;;;;5112997;28;20435;-65
2021/08/08 03:21:46;;;;;;;4.27;3.87;;;21.20;99.90;;;;;;5098178;28;20211;-65
2021/08/08 03:24:12;;;;;;;4.00;3.40;;;21.10;99.90;;;;;;5098285;28;20560;-66
2021/08/08 03:26:37;;;;;;;5.10;4.60;;;21.10;99.90;;;;;;5117127;28;20199;-66
2021/08/08 03:29:03;;;;;;;3.47;3.17;;;21.10;99.90;;;;;;5117837;28;20184;-66
2021/08/08 03:31:30;;;;;;;5.70;3.53;;;21.10;99.90;;;;;;5117493;28;20205;-66
2021/08/08 03:33:55;;;;;;;5.00;3.57;;;21.10;99.90;;;;;;5118293;28;20585;-66
2021/08/08 03:36:22;;;;;;;5.57;3.90;;;21.10;99.90;;;;;;5117599;28;20439;-66
2021/08/08 03:38:48;;;;;;;5.20;4.03;;;21.10;99.90;;;;;;5098371;28;20190;-66
2021/08/08 03:41:15;;;;;;;6.30;5.30;;;21.10;99.90;;;;;;5115296;28;21007;-66
2021/08/08 03:43:41;;;;;;;4.57;4.10;;;21.10;99.90;;;;;;5114221;28;20817;-66
2021/08/08 03:46:06;;;;;;;5.10;3.83;;;21.10;99.90;;;;;;5115152;28;20476;-66
2021/08/08 03:48:32;;;;;;;4.63;3.53;;;21.10;99.90;;;;;;5114859;28;20643;-66
2021/08/08 03:50:58;;;;;;;4.13;3.73;;;21.10;99.90;;;;;;5114570;28;20543;-66
2021/08/08 03:53:23;;;;;;;5.17;4.70;;;21.10;99.90;;;;;;5115775;28;20240;-66
2021/08/08 03:55:49;;;;;;;3.80;3.50;;;21.10;99.90;;;;;;5098853;28;20609;-66
2021/08/08 03:58:14;;;;;;;5.33;4.80;;;21.10;99.90;;;;;;5118435;28;20178;-66
2021/08/08 04:00:43;;;;;;;4.20;3.80;;;21.10;99.90;;;;;;5118526;28;20695;-66
2021/08/08 04:03:09;;;;;;;4.33;3.93;;;21.10;99.90;;;;;;5099238;28;20636;-65
2021/08/08 04:05:35;;;;;;;4.53;3.77;;;21.00;99.90;;;;;;5116925;28;20471;-67
2021/08/08 04:08:01;;;;;;;5.00;3.80;;;21.00;99.90;;;;;;5116926;28;20419;-64
2021/08/08 04:10:26;;;;;;;5.50;4.37;;;21.00;99.90;;;;;;5116278;28;20179;-64
2021/08/08 04:12:52;;;;;;;5.23;4.07;;;21.00;99.90;;;;;;5116966;28;20210;-65
2021/08/08 04:15:17;;;;;;;4.63;4.20;;;21.00;99.90;;;;;;5116751;28;20168;-66
2021/08/08 04:17:43;;;;;;;6.30;4.43;;;21.00;99.90;;;;;;5118816;28;20167;-66
2021/08/08 04:20:09;;;;;;;6.13;4.60;;;21.00;99.90;;;;;;5115790;28;20223;-66
2021/08/08 04:22:35;;;;;;;5.90;5.00;;;20.90;99.90;;;;;;5115413;28;20194;-65
2021/08/08 04:25:00;;;;;;;6.37;4.50;;;20.90;99.90;;;;;;5116523;28;20455;-66
2021/08/08 04:27:26;;;;;;;4.93;3.90;;;21.00;99.90;;;;;;5116654;28;20194;-66
2021/08/08 04:29:52;;;;;;;4.70;4.20;;;21.00;99.90;;;;;;5098324;28;20171;-66
2021/08/08 04:32:18;;;;;;;5.70;4.67;;;21.00;99.90;;;;;;5115632;28;20205;-66
2021/08/08 04:34:43;;;;;;;6.23;4.77;;;21.00;99.90;;;;;;5098193;28;20183;-66
2021/08/08 04:37:09;;;;;;;6.50;5.27;;;21.00;99.90;;;;;;5116361;28;20942;-66
2021/08/08 04:39:35;;;;;;;5.33;4.63;;;21.00;99.90;;;;;;5116975;28;20167;-66
2021/08/08 04:42:02;;;;;;;5.03;4.53;;;21.00;99.90;;;;;;5115936;28;20202;-66
2021/08/08 04:44:30;;;;;;;6.00;4.60;;;21.00;99.90;;;;;;5116094;28;20230;-66
2021/08/08 04:46:56;;;;;;;5.13;4.73;;;21.00;99.90;;;;;;5097722;28;20445;-66
2021/08/08 04:49:21;;;;;;;6.13;5.30;;;21.00;99.90;;;;;;5116024;28;20426;-65
2021/08/08 04:51:47;;;;;;;6.47;5.13;;;21.00;99.90;;;;;;5115990;28;20201;-66
2021/08/08 04:54:12;;;;;;;4.97;4.50;;;21.00;99.90;;;;;;5097918;28;20278;-66
2021/08/08 04:56:38;;;;;;;6.10;4.70;;;21.00;99.90;;;;;;5115543;28;20256;-66
2021/08/08 04:59:04;;;;;;;8.23;4.10;;;21.10;99.90;;;;;;5110287;28;20176;-66
2021/08/08 05:01:30;;;;;;;4.67;4.27;;;21.10;99.90;;;;;;5094240;28;20267;-68
2021/08/08 05:03:56;;;;;;;6.53;5.20;;;21.10;99.90;;;;;;5074938;28;20504;-66
2021/08/08 05:06:23;;;;;;;5.27;4.77;;;21.10;99.90;;;;;;5101095;28;20217;-66
2021/08/08 05:08:48;;;;;;;5.90;4.90;;;21.20;99.90;;;;;;5114394;28;20407;-66
2021/08/08 05:11:18;;;;;;;9.17;4.63;;;21.20;99.90;;;;;;5113839;28;20715;-66
2021/08/08 05:13:46;;;;;;;6.40;4.50;;;21.30;99.90;;;;;;5096528;28;20248;-66
2021/08/08 05:16:14;;;;;;;7.63;5.00;;;21.30;99.90;;;;;;5114934;28;20431;-67
2021/08/08 05:18:40;;;;;;;6.00;4.97;;;21.30;99.90;;;;;;5116290;28;20420;-67
2021/08/08 05:21:06;;;;;;;7.80;6.70;;;21.30;99.90;;;;;;5097429;28;20817;-67
2021/08/08 05:23:33;;;;;;;6.90;6.20;;;21.40;99.90;;;;;;5115361;28;20416;-66
2021/08/08 05:25:59;;;;;;;6.90;5.10;;;21.40;99.90;;;;;;5115249;28;20201;-67
2021/08/08 05:28:26;;;;;;;6.97;6.27;;;21.50;99.90;;;;;;5114688;28;20763;-67
2021/08/08 05:30:51;;;;;;;7.40;6.70;;;21.50;99.90;;;;;;5114869;28;20443;-66
2021/08/08 05:33:17;;;;;;;7.77;6.80;;;21.60;99.90;;;;;;5114700;28;20435;-66
2021/08/08 05:35:43;;;;;;;8.97;7.13;;;21.60;99.90;;;;;;5114918;28;20809;-66
2021/08/08 05:38:08;;;;;;;6.90;6.20;;;21.60;99.90;;;;;;5096765;28;20172;-67
2021/08/08 05:40:34;;;;;;;9.77;7.70;;;21.70;99.90;;;;;;5114711;28;20738;-66
2021/08/08 05:42:59;;;;;;;8.70;7.80;;;21.70;99.90;;;;;;5093023;28;20232;-67
2021/08/08 05:45:25;;;;;;;8.90;8.03;;;21.80;99.90;;;;;;5093658;28;20204;-66
2021/08/08 05:47:51;;;;;;;14.20;7.73;;;21.90;99.90;;;;;;5093344;28;20644;-66
2021/08/08 05:50:17;;;;;;;11.10;6.70;;;21.90;99.90;;;;;;5093360;28;20191;-67
2021/08/08 05:52:50;;;;;;;7.67;6.50;;;22.00;99.90;;;;;;5094072;28;20500;-67
2021/08/08 05:55:16;;;;;;;8.60;6.80;;;22.00;99.90;;;;;;5093832;28;20172;-67
2021/08/08 05:57:42;;;;;;;10.77;7.07;;;22.10;99.90;;;;;;5094035;28;20441;-67
2021/08/08 06:00:08;;;;;;;7.90;6.50;;;22.20;99.90;;;;;;5093727;28;20456;-67
2021/08/08 06:02:34;;;;;;;8.27;6.53;;;22.30;99.90;;;;;;5093226;28;20200;-67
2021/08/08 06:04:59;;;;;;;7.53;6.23;;;22.40;99.90;;;;;;5093182;28;20559;-67
2021/08/08 06:07:25;;;;;;;9.43;7.47;;;22.50;99.90;;;;;;5093132;28;20444;-67
2021/08/08 06:09:50;;;;;;;8.90;6.73;;;22.60;99.90;;;;;;5093169;28;20177;-67
2021/08/08 06:12:16;;;;;;;8.90;6.07;;;22.80;99.90;;;;;;5093794;28;20227;-67
2021/08/08 06:14:42;;;;;;;9.37;6.83;;;22.80;99.90;;;;;;5093867;28;20176;-67
2021/08/08 06:17:07;;;;;;;6.70;5.77;;;22.90;99.90;;;;;;5092611;28;20703;-67
2021/08/08 06:19:33;;;;;;;7.57;6.77;;;23.10;99.90;;;;;;5093800;28;20195;-67
2021/08/08 06:21:59;;;;;;;7.07;6.37;;;23.20;99.90;;;;;;5092157;28;20207;-67
2021/08/08 06:24:24;;;;;;;9.10;6.57;;;23.30;99.90;;;;;;5094299;28;20253;-67
2021/08/08 06:26:50;;;;;;;5.87;5.33;;;23.50;99.90;;;;;;5093951;28;20204;-67
2021/08/08 06:29:15;;;;;;;7.97;6.37;;;23.60;99.90;;;;;;5094450;28;20683;-67
2021/08/08 06:31:41;;;;;;;6.83;6.13;;;23.70;99.90;;;;;;5092504;28;20208;-67
2021/08/08 06:34:07;;;;;;;7.53;6.80;;;23.80;99.90;;;;;;5093851;28;20196;-68
2021/08/08 06:36:32;;;;;;;8.47;6.53;;;23.80;99.90;;;;;;5093240;28;20205;-67
2021/08/08 06:39:03;;;;;;;9.57;5.90;;;23.90;99.90;;;;;;5093613;28;20180;-67
2021/08/08 06:41:29;;;;;;;7.03;5.70;;;24.00;99.90;;;;;;5093813;28;20204;-67
2021/08/08 06:43:54;;;;;;;6.30;5.70;;;24.10;99.90;;;;;;5107631;28;20531;-67
2021/08/08 06:46:20;;;;;;;6.40;5.80;;;24.20;99.90;;;;;;5114102;28;20286;-68
2021/08/08 06:48:46;;;;;;;7.77;6.63;;;24.20;99.90;;;;;;5114162;28;20223;-67
2021/08/08 06:51:12;;;;;;;8.87;5.90;;;24.30;99.90;;;;;;5113898;28;20215;-67
2021/08/08 06:53:37;;;;;;;7.03;6.30;;;24.40;99.90;;;;;;5113800;28;20181;-67
2021/08/08 06:56:03;;;;;;;6.60;6.00;;;24.40;99.90;;;;;;5113887;28;20428;-67
2021/08/08 06:58:29;;;;;;;7.63;6.70;;;24.50;99.90;;;;;;5114401;28;20612;-67
2021/08/08 07:00:54;;;;;;;7.73;6.63;;;24.60;99.90;;;;;;5114018;28;20197;-67
2021/08/08 07:03:20;;;;;;;6.73;6.03;;;24.70;99.90;;;;;;5095675;28;20528;-67
2021/08/08 07:05:46;;;;;;;6.57;5.60;;;24.80;99.90;;;;;;5093880;28;20805;-68
2021/08/08 07:08:11;;;;;;;7.87;6.37;;;24.90;99.90;;;;;;5109904;28;20189;-67
2021/08/08 07:10:37;;;;;;;6.80;6.10;;;24.90;99.90;;;;;;5111401;28;20190;-67
2021/08/08 07:13:03;;;;;;;9.83;6.90;;;25.00;99.90;;;;;;5110657;28;20175;-67
2021/08/08 07:15:29;;;;;;;13.30;6.53;;;25.10;99.90;;;;;;5091856;28;20460;-67
2021/08/08 07:17:55;;;;;;;8.37;6.20;;;25.20;99.90;;;;;;5092179;28;20228;-68
2021/08/08 07:20:20;;;;;;;15.50;6.10;;;25.30;99.90;;;;;;5112967;28;20659;-67
2021/08/08 07:22:46;;;;;;;10.07;5.40;;;25.40;99.90;;;;;;5113861;28;20213;-67
2021/08/08 07:25:11;;;;;;;7.33;6.40;;;25.50;99.90;;;;;;5110701;28;20676;-67
2021/08/08 07:27:38;;;;;;;6.40;5.80;;;25.60;99.90;;;;;;5092936;28;20585;-67
2021/08/08 07:30:04;;;;;;;7.70;6.00;;;25.70;99.90;;;;;;5111742;28;20185;-67
2021/08/08 07:32:30;;;;;;;7.57;5.80;;;25.80;99.90;;;;;;5111455;28;20852;-68
2021/08/08 07:34:55;;;;;;;7.00;6.00;;;25.80;99.90;;;;;;5093303;28;20408;-67
2021/08/08 07:37:21;;;;;;;6.63;5.47;;;25.90;99.90;;;;;;5111482;28;20682;-68
2021/08/08 07:39:47;;;;;;;6.67;5.63;;;26.00;99.90;;;;;;5113141;28;20520;-67
2021/08/08 07:42:13;;;;;;;7.00;5.50;;;26.00;99.90;;;;;;5095211;28;20428;-68
2021/08/08 07:44:38;;;;;;;7.30;5.80;;;26.20;99.90;;;;;;5113417;28;20518;-68
2021/08/08 07:47:04;;;;;;;6.60;6.00;;;26.20;99.90;;;;;;5113616;28;20321;-67
2021/08/08 07:49:30;;;;;;;7.07;5.43;;;26.30;99.90;;;;;;5114203;28;20168;-67
2021/08/08 07:51:56;;;;;;;5.60;5.10;;;26.40;99.90;;;;;;5095240;28;20507;-67
2021/08/08 07:54:21;;;;;;;6.73;5.60;;;26.50;99.90;;;;;;5114137;28;20225;-68
2021/08/08 07:56:47;;;;;;;6.90;5.10;;;26.60;99.90;;;;;;5113650;28;20199;-68
2021/08/08 07:59:13;;;;;;;6.23;5.63;;;26.70;99.90;;;;;;5095358;28;20280;-67
2021/08/08 08:01:41;;;;;;;8.27;5.20;;;26.80;99.90;;;;;;5113514;28;20468;-68
2021/08/08 08:04:07;;;;;;;5.30;4.80;;;27.00;99.90;;;;;;5113710;28;20260;-68
2021/08/08 08:06:33;;;;;;;6.13;5.40;;;27.10;99.90;;;;;;5113333;28;20465;-67
2021/08/08 08:08:59;;;;;;;6.83;5.10;;;27.20;99.90;;;;;;5116500;28;20427;-67
2021/08/08 08:11:24;;;;;;;5.67;5.07;;;27.30;99.90;;;;;;5117020;28;20195;-67
2021/08/08 08:13:50;;;;;;;6.67;5.70;;;27.30;99.90;;;;;;5117417;28;20168;-68
2021/08/08 08:16:15;;;;;;;5.30;4.80;;;27.40;99.90;;;;;;5098651;28;20213;-67
2021/08/08 08:18:41;;;;;;;7.03;5.60;;;27.60;99.90;;;;;;5113013;28;20516;-67
2021/08/08 08:21:07;;;;;;;4.77;4.40;;;27.70;99.90;;;;;;5112494;28;20258;-69
2021/08/08 08:23:32;;;;;;;6.50;5.67;;;27.70;99.90;;;;;;5114521;28;20187;-67
2021/08/08 08:25:58;;;;;;;5.73;4.50;;;27.80;99.90;;;;;;5098491;27;20232;-67
2021/08/08 08:28:29;;;;;;;5.10;4.60;;;27.90;99.90;;;;;;5100152;28;20215;-68
2021/08/08 08:30:55;;;;;;;5.57;5.00;;;28.00;99.90;;;;;;5094094;28;20200;-68
2021/08/08 08:33:20;;;;;;;5.53;4.60;;;28.00;99.90;;;;;;5095435;28;20436;-68
2021/08/08 08:35:46;;;;;;;5.90;5.40;;;28.00;99.90;;;;;;5078149;28;20433;-68
2021/08/08 08:38:12;;;;;;;5.50;4.57;;;28.00;99.90;;;;;;5096192;28;20630;-68
2021/08/08 08:40:39;;;;;;;5.63;5.03;;;28.10;99.90;;;;;;5096126;28;20193;-68
2021/08/08 08:43:08;;;;;;;4.93;4.50;;;28.20;99.90;;;;;;5095923;28;20220;-68
2021/08/08 08:45:35;;;;;;;5.10;4.70;;;28.20;99.90;;;;;;5077607;28;20476;-69
2021/08/08 08:48:01;;;;;;;4.77;4.27;;;28.40;99.90;;;;;;5096126;28;20517;-68
2021/08/08 08:50:27;;;;;;;5.00;4.33;;;28.50;99.90;;;;;;5095912;28;20643;-68
2021/08/08 08:52:53;;;;;;;5.17;4.70;;;28.60;99.90;;;;;;5095870;28;20420;-68
2021/08/08 08:55:19;;;;;;;6.87;4.67;;;28.60;99.90;;;;;;5077711;28;20578;-68
2021/08/08 08:57:45;;;;;;;4.70;4.30;;;28.70;99.60;;;;;;5077735;28;20453;-68
2021/08/08 09:00:11;;;;;;;4.60;4.20;;;28.80;99.70;;;;;;5077606;28;20637;-68
2021/08/08 09:02:38;;;;;;;5.60;5.10;;;28.90;99.90;;;;;;5095831;28;20189;-68
2021/08/08 09:05:04;;;;;;;11.30;5.07;;;29.10;99.80;;;;;;5095345;28;20458;-68
2021/08/08 09:07:29;;;;;;;6.60;4.27;;;29.20;99.90;;;;;;5077382;28;20430;-68
2021/08/08 09:09:57;;;;;;;5.03;4.60;;;29.30;99.50;;;;;;5095547;28;20406;-68
2021/08/08 09:12:24;;;;;;;5.23;4.07;;;29.40;99.00;;;;;;5101263;28;20259;-68
2021/08/08 09:15:03;;;;;;;5.03;4.53;;;29.50;98.80;;;;;;5115662;28;20407;-68
2021/08/08 09:17:35;;;;;;;4.67;4.27;;;29.60;98.50;;;;;;5097262;28;20525;-68
2021/08/08 09:20:04;;;;;;;6.10;3.87;;;29.70;98.60;;;;;;5115621;28;20758;-68
2021/08/08 09:22:30;;;;;;;4.70;4.23;;;29.80;98.50;;;;;;5096744;28;20449;-68
2021/08/08 09:24:57;;;;;;;4.33;3.90;;;29.90;98.60;;;;;;5113292;28;20458;-68
2021/08/08 09:27:35;;;;;;;5.87;4.67;;;30.10;98.70;;;;;;5113404;28;20249;-68
2021/08/08 09:30:02;;;;;;;4.40;4.03;;;30.10;98.20;;;;;;5113408;28;20410;-68
2021/08/08 09:32:29;;;;;;;5.93;4.93;;;30.20;97.40;;;;;;5113359;28;20460;-68
2021/08/08 09:35:13;;;;;;;5.53;4.07;;;30.20;97.20;;;;;;5113441;28;20410;-68
2021/08/08 09:37:39;;;;;;;4.00;3.60;;;30.30;97.20;;;;;;5095485;28;20422;-68
2021/08/08 09:40:14;;;;;;;6.27;3.93;;;30.30;97.30;;;;;;5115488;28;20401;-68
2021/08/08 09:42:45;;;;;;;4.83;3.50;;;30.30;96.80;;;;;;5096924;28;20187;-68
2021/08/08 09:45:14;;;;;;;4.80;4.33;;;30.30;96.80;;;;;;5096761;28;20531;-68
2021/08/08 09:47:43;;;;;;;4.23;3.90;;;30.40;96.30;;;;;;5115353;28;20411;-68
2021/08/08 09:50:15;;;;;;;4.53;4.13;;;30.30;96.10;;;;;;5115234;28;20408;-68
2021/08/08 09:52:53;;;;;;;5.20;3.90;;;30.40;96.50;;;;;;5115220;28;20945;-68
2021/08/08 09:55:37;;;;;;;4.67;4.27;;;30.40;96.10;;;;;;5115135;28;20404;-68
2021/08/08 09:58:21;;;;;;;4.20;3.90;;;30.50;96.30;;;;;;5115283;28;20419;-68
2021/08/08 10:00:48;;;;;;;5.10;4.33;;;30.60;97.00;;;;;;5115125;28;20422;-68
2021/08/08 10:03:15;;;;;;;4.77;4.27;;;30.70;96.90;;;;;;5115102;28;20416;-68
2021/08/08 10:05:43;;;;;;;4.47;4.07;;;30.70;96.60;;;;;;5096290;28;20485;-68
2021/08/08 10:08:14;;;;;;;4.77;4.37;;;30.60;95.80;;;;;;5096612;28;20445;-68
2021/08/08 10:10:42;;;;;;;5.40;3.73;;;30.70;95.90;;;;;;5096570;28;20514;-68
2021/08/08 10:13:08;;;;;;;4.30;4.00;;;30.70;95.90;;;;;;5115030;28;21000;-68
2021/08/08 10:15:42;;;;;;;4.30;3.57;;;30.80;96.30;;;;;;5130575;27;20434;-68
2021/08/08 10:18:10;;;;;;;4.40;4.00;;;30.80;95.30;;;;;;5114957;28;20169;-68
2021/08/08 10:20:36;;;;;;;4.13;3.73;;;30.80;95.00;;;;;;5096312;28;20431;-68
2021/08/08 10:23:02;;;;;;;4.20;3.90;;;30.80;95.60;;;;;;5114804;28;20417;-68
2021/08/08 10:25:29;;;;;;;4.37;3.97;;;30.90;95.10;;;;;;5114361;28;20813;-68
2021/08/08 10:27:56;;;;;;;3.90;3.60;;;31.00;94.90;;;;;;5114555;28;20427;-68
2021/08/08 10:30:22;;;;;;;3.97;3.67;;;31.00;94.70;;;;;;5095820;28;20408;-68
2021/08/08 10:32:48;;;;;;;5.30;3.60;;;31.00;95.20;;;;;;5114618;28;20414;-68
2021/08/08 10:35:17;;;;;;;5.87;5.00;;;31.10;94.50;;;;;;5114394;28;20406;-68
2021/08/08 10:37:44;;;;;;;4.40;4.00;;;31.10;94.50;;;;;;5096264;28;20201;-68
2021/08/08 10:40:11;;;;;;;4.13;3.83;;;31.20;95.30;;;;;;5114371;28;20403;-68
2021/08/08 10:42:46;;;;;;;3.93;3.63;;;31.20;94.80;;;;;;5114192;28;20794;-69
2021/08/08 10:45:26;;;;;;;4.00;3.67;;;31.30;94.90;;;;;;5114189;28;20465;-68
2021/08/08 10:47:57;;;;;;;4.13;3.73;;;31.40;94.40;;;;;;5114262;28;20415;-68
2021/08/08 10:50:33;;;;;;;7.43;3.90;;;31.40;94.10;;;;;;5096045;28;20414;-68
2021/08/08 10:52:59;;;;;;;3.53;3.23;;;31.40;94.20;;;;;;5114216;28;20486;-68
2021/08/08 10:55:29;;;;;;;4.43;3.57;;;31.40;94.00;;;;;;5114264;28;20411;-68
2021/08/08 10:57:55;;;;;;;3.50;3.20;;;31.40;93.60;;;;;;5114299;28;20203;-68
2021/08/08 11:00:29;;;;;;;3.83;3.53;;;31.40;93.50;;;;;;5114097;28;20462;-69
2021/08/08 11:02:54;;;;;;;4.30;3.70;;;31.50;93.50;;;;;;5114233;28;20436;-68
2021/08/08 11:05:22;;;;;;;4.13;3.83;;;31.50;93.40;;;;;;5113856;28;20470;-68
2021/08/08 11:07:48;;;;;;;4.60;3.70;;;31.50;93.20;;;;;;5129838;28;20183;-68
2021/08/08 11:10:43;;;;;;;3.20;2.90;;;31.50;92.90;;;;;;5114008;28;20419;-68
2021/08/08 11:13:20;;;;;;;4.70;4.30;;;31.50;93.00;;;;;;5112172;28;20431;-68
2021/08/08 11:15:46;;;;;;;4.60;3.40;;;31.60;93.00;;;;;;5095728;28;20790;-68
2021/08/08 11:18:13;;;;;;;3.80;3.50;;;31.60;92.80;;;;;;5114109;28;20418;-68
2021/08/08 11:20:38;;;;;;;3.43;3.20;;;31.70;92.80;;;;;;5113941;28;20419;-68
2021/08/08 11:23:04;;;;;;;4.10;3.70;;;31.80;93.00;;;;;;5114066;28;20758;-68
2021/08/08 11:25:39;;;;;;;4.13;3.73;;;31.80;93.00;;;;;;5113830;28;20324;-68
2021/08/08 11:28:05;;;;;;;5.43;3.70;;;31.90;92.80;;;;;;5113702;28;20167;-68
2021/08/08 11:30:41;;;;;;;4.57;3.50;;;31.90;92.70;;;;;;5095602;28;20401;-68
2021/08/08 11:33:06;;;;;;;3.83;3.40;;;31.90;92.30;;;;;;5114117;28;20422;-68
2021/08/08 11:35:32;;;;;;;4.30;3.53;;;31.90;92.40;;;;;;5113923;28;20423;-69
2021/08/08 11:37:58;;;;;;;4.73;3.50;;;32.00;92.20;;;;;;5114013;28;20449;-68
2021/08/08 11:40:24;;;;;;;4.97;3.50;;;31.90;91.90;;;;;;5113830;28;20341;-68
2021/08/08 11:43:05;;;;;;;3.90;3.27;;;31.80;91.90;;;;;;5114638;28;20219;-68
2021/08/08 11:45:48;;;;;;;4.13;3.83;;;31.90;92.00;;;;;;5117581;28;20516;-68
2021/08/08 11:48:19;;;;;;;3.93;3.63;;;31.90;91.80;;;;;;5099163;28;20415;-68
2021/08/08 11:51:03;;;;;;;5.97;3.60;;;31.80;91.70;;;;;;5099265;28;20527;-68
2021/08/08 11:53:32;;;;;;;5.00;3.20;;;31.90;91.70;;;;;;5117911;28;20404;-68
2021/08/08 11:56:17;;;;;;;3.60;3.30;;;31.90;91.60;;;;;;5117412;28;20427;-68
2021/08/08 11:58:47;;;;;;;5.23;3.87;;;31.90;91.50;;;;;;5099384;28;20426;-68
2021/08/08 12:01:13;;;;;;;4.20;3.80;;;31.90;91.70;;;;;;5099002;28;20513;-68
2021/08/08 12:03:39;;;;;;;4.90;4.03;;;32.00;92.00;;;;;;5117766;28;20945;-68
2021/08/08 12:06:05;;;;;;;3.90;3.60;;;32.00;91.50;;;;;;5117135;28;20219;-68
2021/08/08 12:08:31;;;;;;;5.80;4.17;;;32.00;91.50;;;;;;5132870;27;20913;-68
2021/08/08 12:10:57;;;;;;;4.23;3.83;;;32.00;91.30;;;;;;5098679;28;20462;-68
2021/08/08 12:13:23;;;;;;;4.03;3.60;;;32.00;91.40;;;;;;5133030;27;20184;-68
2021/08/08 12:15:49;;;;;;;4.30;3.90;;;32.00;91.30;;;;;;5117051;28;20939;-68
2021/08/08 12:18:25;;;;;;;4.47;4.07;;;32.00;91.20;;;;;;5117272;28;20458;-68
2021/08/08 12:20:51;;;;;;;3.80;3.50;;;32.00;91.10;;;;;;5098709;28;20486;-68
2021/08/08 12:23:18;;;;;;;6.80;4.27;;;32.00;91.10;;;;;;5117124;28;20792;-68
2021/08/08 12:25:45;;;;;;;3.60;3.10;;;32.00;91.00;;;;;;5116877;28;20751;-68
2021/08/08 12:28:22;;;;;;;4.10;3.30;;;32.10;91.00;;;;;;5116769;28;20865;-68
2021/08/08 12:30:48;;;;;;;4.60;3.43;;;32.10;90.80;;;;;;5116797;28;20437;-68
2021/08/08 12:33:15;;;;;;;3.83;3.30;;;32.10;90.90;;;;;;5116962;28;20413;-69
2021/08/08 12:35:42;;;;;;;3.50;3.20;;;32.10;91.00;;;;;;5116634;28;20214;-68
2021/08/08 12:38:12;;;;;;;6.30;3.50;;;32.30;91.20;;;;;;5098391;28;20946;-68
2021/08/08 12:40:48;;;;;;;6.17;4.00;;;32.30;90.80;;;;;;5116633;28;20436;-68
2021/08/08 12:43:26;;;;;;;4.97;3.20;;;32.40;90.80;;;;;;5116195;28;20479;-68
2021/08/08 12:45:53;;;;;;;4.00;3.70;;;32.40;90.60;;;;;;5116395;28;20811;-68